sensor_id;sensor_type;location;lat;lon;timestamp;P1;durP1;ratioP1;P2;durP2;ratioP2
4464;SDS011;2245;48.136;13.428;2023-09-07T00:00:30;10.50;;;5.93;;
4464;SDS011;2245;48.136;13.428;2023-09-07T00:02:57;5.53;;;4.53;;
4464;SDS011;2245;48.136;13.428;2023-09-07T00:05:26;5.37;;;4.73;;
4464;SDS011;2245;48.136;13.428;2023-09-07T00:07:53;5.13;;;4.63;;
4464;SDS011;2245;48.136;13.428;2023-09-07T00:10:21;6.60;;;5.80;;
4464;SDS011;2245;48.136;13.428;2023-09-07T00:12:47;6.27;;;5.73;;
4464;SDS011;2245;48.136;13.428;2023-09-07T00:15:14;5.27;;;4.73;;
4464;SDS011;2245;48.136;13.428;2023-09-07T00:17:44;8.80;;;6.07;;
4464;SDS011;2245;48.136;13.428;2023-09-07T00:20:11;7.50;;;6.10;;
4464;SDS011;2245;48.136;13.428;2023-09-07T00:22:40;6.20;;;5.43;;
4464;SDS011;2245;48.136;13.428;2023-09-07T00:25:07;9.10;;;5.13;;
4464;SDS011;2245;48.136;13.428;2023-09-07T00:27:34;9.00;;;5.60;;
4464;SDS011;2245;48.136;13.428;2023-09-07T00:30:01;6.23;;;5.17;;
4464;SDS011;2245;48.136;13.428;2023-09-07T00:32:29;7.10;;;4.70;;
4464;SDS011;2245;48.136;13.428;2023-09-07T00:34:56;6.07;;;5.27;;
4464;SDS011;2245;48.136;13.428;2023-09-07T00:37:23;6.57;;;4.53;;
4464;SDS011;2245;48.136;13.428;2023-09-07T00:39:51;6.70;;;5.10;;
4464;SDS011;2245;48.136;13.428;2023-09-07T00:42:18;5.77;;;5.13;;
4464;SDS011;2245;48.136;13.428;2023-09-07T00:44:45;5.63;;;4.60;;
4464;SDS011;2245;48.136;13.428;2023-09-07T00:47:13;8.80;;;5.20;;
4464;SDS011;2245;48.136;13.428;2023-09-07T00:49:40;7.03;;;6.23;;
4464;SDS011;2245;48.136;13.428;2023-09-07T00:52:07;6.23;;;5.43;;
4464;SDS011;2245;48.136;13.428;2023-09-07T00:54:35;8.60;;;5.47;;
4464;SDS011;2245;48.136;13.428;2023-09-07T00:57:05;5.67;;;5.17;;
4464;SDS011;2245;48.136;13.428;2023-09-07T00:59:31;5.87;;;4.77;;
4464;SDS011;2245;48.136;13.428;2023-09-07T01:01:58;7.50;;;5.60;;
4464;SDS011;2245;48.136;13.428;2023-09-07T01:04:25;5.30;;;4.70;;
4464;SDS011;2245;48.136;13.428;2023-09-07T01:06:52;7.60;;;5.30;;
4464;SDS011;2245;48.136;13.428;2023-09-07T01:09:23;6.00;;;5.37;;
4464;SDS011;2245;48.136;13.428;2023-09-07T01:11:51;7.00;;;5.13;;
4464;SDS011;2245;48.136;13.428;2023-09-07T01:14:20;6.50;;;5.50;;
4464;SDS011;2245;48.136;13.428;2023-09-07T01:16:47;6.97;;;6.07;;
4464;SDS011;2245;48.136;13.428;2023-09-07T01:19:15;7.67;;;5.00;;
4464;SDS011;2245;48.136;13.428;2023-09-07T01:21:43;6.93;;;5.20;;
4464;SDS011;2245;48.136;13.428;2023-09-07T01:24:10;6.70;;;5.30;;
4464;SDS011;2245;48.136;13.428;2023-09-07T01:26:38;6.60;;;5.90;;
4464;SDS011;2245;48.136;13.428;2023-09-07T01:29:05;5.63;;;5.03;;
4464;SDS011;2245;48.136;13.428;2023-09-07T01:31:34;7.57;;;5.60;;
4464;SDS011;2245;48.136;13.428;2023-09-07T01:34:01;7.63;;;4.80;;
4464;SDS011;2245;48.136;13.428;2023-09-07T01:36:28;7.07;;;5.73;;
4464;SDS011;2245;48.136;13.428;2023-09-07T01:38:56;5.30;;;4.53;;
4464;SDS011;2245;48.136;13.428;2023-09-07T01:41:25;6.77;;;6.03;;
4464;SDS011;2245;48.136;13.428;2023-09-07T01:44:01;5.90;;;5.30;;
4464;SDS011;2245;48.136;13.428;2023-09-07T01:46:28;6.13;;;5.53;;
4464;SDS011;2245;48.136;13.428;2023-09-07T01:48:55;7.17;;;5.73;;
4464;SDS011;2245;48.136;13.428;2023-09-07T01:51:22;6.70;;;5.73;;
4464;SDS011;2245;48.136;13.428;2023-09-07T01:53:52;8.63;;;6.13;;
4464;SDS011;2245;48.136;13.428;2023-09-07T01:56:21;6.87;;;5.77;;
4464;SDS011;2245;48.136;13.428;2023-09-07T01:58:47;6.67;;;5.67;;
4464;SDS011;2245;48.136;13.428;2023-09-07T02:01:21;6.67;;;5.53;;
4464;SDS011;2245;48.136;13.428;2023-09-07T02:03:48;6.07;;;5.10;;
4464;SDS011;2245;48.136;13.428;2023-09-07T02:06:15;6.73;;;5.00;;
4464;SDS011;2245;48.136;13.428;2023-09-07T02:08:41;9.30;;;5.90;;
4464;SDS011;2245;48.136;13.428;2023-09-07T02:11:08;8.10;;;5.70;;
4464;SDS011;2245;48.136;13.428;2023-09-07T02:13:36;7.77;;;5.10;;
4464;SDS011;2245;48.136;13.428;2023-09-07T02:16:03;6.27;;;5.67;;
4464;SDS011;2245;48.136;13.428;2023-09-07T02:18:31;6.20;;;5.47;;
4464;SDS011;2245;48.136;13.428;2023-09-07T02:21:01;8.57;;;5.10;;
4464;SDS011;2245;48.136;13.428;2023-09-07T02:23:28;7.27;;;5.37;;
4464;SDS011;2245;48.136;13.428;2023-09-07T02:25:55;10.10;;;6.10;;
4464;SDS011;2245;48.136;13.428;2023-09-07T02:28:23;7.37;;;6.13;;
4464;SDS011;2245;48.136;13.428;2023-09-07T02:30:51;8.13;;;5.30;;
4464;SDS011;2245;48.136;13.428;2023-09-07T02:33:18;6.83;;;5.00;;
4464;SDS011;2245;48.136;13.428;2023-09-07T02:35:45;6.17;;;5.53;;
4464;SDS011;2245;48.136;13.428;2023-09-07T02:38:14;8.67;;;5.90;;
4464;SDS011;2245;48.136;13.428;2023-09-07T02:40:41;5.80;;;4.60;;
4464;SDS011;2245;48.136;13.428;2023-09-07T02:43:08;6.90;;;6.03;;
4464;SDS011;2245;48.136;13.428;2023-09-07T02:45:35;6.40;;;5.43;;
4464;SDS011;2245;48.136;13.428;2023-09-07T02:48:04;9.33;;;6.30;;
4464;SDS011;2245;48.136;13.428;2023-09-07T02:50:31;9.30;;;5.87;;
4464;SDS011;2245;48.136;13.428;2023-09-07T02:52:59;9.03;;;6.60;;
4464;SDS011;2245;48.136;13.428;2023-09-07T02:55:25;8.47;;;6.37;;
4464;SDS011;2245;48.136;13.428;2023-09-07T02:57:53;6.57;;;5.33;;
4464;SDS011;2245;48.136;13.428;2023-09-07T03:00:20;6.70;;;5.10;;
4464;SDS011;2245;48.136;13.428;2023-09-07T03:02:47;6.70;;;5.97;;
4464;SDS011;2245;48.136;13.428;2023-09-07T03:05:16;10.00;;;6.33;;
4464;SDS011;2245;48.136;13.428;2023-09-07T03:07:44;7.00;;;5.60;;
4464;SDS011;2245;48.136;13.428;2023-09-07T03:10:11;9.00;;;6.10;;
4464;SDS011;2245;48.136;13.428;2023-09-07T03:12:38;8.03;;;6.30;;
4464;SDS011;2245;48.136;13.428;2023-09-07T03:15:05;7.47;;;5.90;;
4464;SDS011;2245;48.136;13.428;2023-09-07T03:17:32;9.40;;;6.10;;
4464;SDS011;2245;48.136;13.428;2023-09-07T03:19:59;9.00;;;5.50;;
4464;SDS011;2245;48.136;13.428;2023-09-07T03:22:32;5.20;;;4.70;;
4464;SDS011;2245;48.136;13.428;2023-09-07T03:24:59;5.90;;;5.30;;
4464;SDS011;2245;48.136;13.428;2023-09-07T03:27:26;8.63;;;5.40;;
4464;SDS011;2245;48.136;13.428;2023-09-07T03:29:53;6.10;;;5.13;;
4464;SDS011;2245;48.136;13.428;2023-09-07T03:32:19;7.27;;;5.20;;
4464;SDS011;2245;48.136;13.428;2023-09-07T03:34:46;7.20;;;5.53;;
4464;SDS011;2245;48.136;13.428;2023-09-07T03:37:13;9.43;;;5.27;;
4464;SDS011;2245;48.136;13.428;2023-09-07T03:39:41;7.53;;;5.13;;
4464;SDS011;2245;48.136;13.428;2023-09-07T03:42:08;8.93;;;6.30;;
4464;SDS011;2245;48.136;13.428;2023-09-07T03:44:35;6.40;;;5.30;;
4464;SDS011;2245;48.136;13.428;2023-09-07T03:47:01;5.73;;;4.83;;
4464;SDS011;2245;48.136;13.428;2023-09-07T03:49:29;13.33;;;5.60;;
4464;SDS011;2245;48.136;13.428;2023-09-07T03:51:56;5.90;;;5.10;;
4464;SDS011;2245;48.136;13.428;2023-09-07T03:54:23;6.80;;;5.50;;
4464;SDS011;2245;48.136;13.428;2023-09-07T03:56:51;7.60;;;5.57;;
4464;SDS011;2245;48.136;13.428;2023-09-07T03:59:18;5.37;;;4.63;;
4464;SDS011;2245;48.136;13.428;2023-09-07T04:01:45;5.90;;;5.20;;
4464;SDS011;2245;48.136;13.428;2023-09-07T04:04:12;9.57;;;5.60;;
4464;SDS011;2245;48.136;13.428;2023-09-07T04:06:39;8.80;;;5.30;;
4464;SDS011;2245;48.136;13.428;2023-09-07T04:09:05;7.40;;;6.20;;
4464;SDS011;2245;48.136;13.428;2023-09-07T04:11:32;6.03;;;5.07;;
4464;SDS011;2245;48.136;13.428;2023-09-07T04:14:00;6.53;;;5.20;;
4464;SDS011;2245;48.136;13.428;2023-09-07T04:16:27;9.83;;;5.10;;
4464;SDS011;2245;48.136;13.428;2023-09-07T04:18:54;8.17;;;6.27;;
4464;SDS011;2245;48.136;13.428;2023-09-07T04:21:21;10.20;;;6.03;;
4464;SDS011;2245;48.136;13.428;2023-09-07T04:23:47;15.13;;;6.97;;
4464;SDS011;2245;48.136;13.428;2023-09-07T04:26:14;6.80;;;6.13;;
4464;SDS011;2245;48.136;13.428;2023-09-07T04:28:41;6.67;;;5.13;;
4464;SDS011;2245;48.136;13.428;2023-09-07T04:31:09;8.73;;;5.23;;
4464;SDS011;2245;48.136;13.428;2023-09-07T04:33:36;7.33;;;6.50;;
4464;SDS011;2245;48.136;13.428;2023-09-07T04:36:07;14.50;;;7.90;;
4464;SDS011;2245;48.136;13.428;2023-09-07T04:38:35;8.50;;;6.33;;
4464;SDS011;2245;48.136;13.428;2023-09-07T04:41:05;8.60;;;5.70;;
4464;SDS011;2245;48.136;13.428;2023-09-07T04:43:33;11.60;;;6.17;;
4464;SDS011;2245;48.136;13.428;2023-09-07T04:46:00;8.87;;;5.90;;
4464;SDS011;2245;48.136;13.428;2023-09-07T04:48:28;6.27;;;5.50;;
4464;SDS011;2245;48.136;13.428;2023-09-07T04:50:58;7.50;;;6.47;;
4464;SDS011;2245;48.136;13.428;2023-09-07T04:53:25;6.60;;;5.73;;
4464;SDS011;2245;48.136;13.428;2023-09-07T04:55:53;8.17;;;5.60;;
4464;SDS011;2245;48.136;13.428;2023-09-07T04:58:20;7.77;;;5.67;;
4464;SDS011;2245;48.136;13.428;2023-09-07T05:00:47;6.07;;;5.00;;
4464;SDS011;2245;48.136;13.428;2023-09-07T05:03:14;13.17;;;6.40;;
4464;SDS011;2245;48.136;13.428;2023-09-07T05:05:42;6.50;;;5.63;;
4464;SDS011;2245;48.136;13.428;2023-09-07T05:08:09;9.50;;;6.30;;
4464;SDS011;2245;48.136;13.428;2023-09-07T05:10:37;17.30;;;6.00;;
4464;SDS011;2245;48.136;13.428;2023-09-07T05:13:04;8.30;;;5.30;;
4464;SDS011;2245;48.136;13.428;2023-09-07T05:15:31;8.00;;;6.23;;
4464;SDS011;2245;48.136;13.428;2023-09-07T05:17:57;6.73;;;5.80;;
4464;SDS011;2245;48.136;13.428;2023-09-07T05:20:24;11.07;;;6.10;;
4464;SDS011;2245;48.136;13.428;2023-09-07T05:22:52;9.73;;;6.07;;
4464;SDS011;2245;48.136;13.428;2023-09-07T05:25:21;8.40;;;5.93;;
4464;SDS011;2245;48.136;13.428;2023-09-07T05:27:48;7.70;;;5.20;;
4464;SDS011;2245;48.136;13.428;2023-09-07T05:30:15;7.43;;;5.97;;
4464;SDS011;2245;48.136;13.428;2023-09-07T05:32:42;6.17;;;5.03;;
4464;SDS011;2245;48.136;13.428;2023-09-07T05:35:08;6.70;;;5.40;;
4464;SDS011;2245;48.136;13.428;2023-09-07T05:37:37;10.50;;;6.57;;
4464;SDS011;2245;48.136;13.428;2023-09-07T05:40:06;6.10;;;4.77;;
4464;SDS011;2245;48.136;13.428;2023-09-07T05:42:34;6.00;;;5.23;;
4464;SDS011;2245;48.136;13.428;2023-09-07T05:45:01;5.30;;;4.80;;
4464;SDS011;2245;48.136;13.428;2023-09-07T05:47:29;3.73;;;3.43;;
4464;SDS011;2245;48.136;13.428;2023-09-07T05:49:55;8.20;;;5.77;;
4464;SDS011;2245;48.136;13.428;2023-09-07T05:52:22;11.10;;;5.30;;
4464;SDS011;2245;48.136;13.428;2023-09-07T05:54:49;11.53;;;7.87;;
4464;SDS011;2245;48.136;13.428;2023-09-07T05:57:17;6.87;;;5.70;;
4464;SDS011;2245;48.136;13.428;2023-09-07T05:59:44;7.20;;;5.30;;
4464;SDS011;2245;48.136;13.428;2023-09-07T06:02:11;5.40;;;4.70;;
4464;SDS011;2245;48.136;13.428;2023-09-07T06:04:38;8.53;;;5.40;;
4464;SDS011;2245;48.136;13.428;2023-09-07T06:07:05;8.17;;;5.80;;
4464;SDS011;2245;48.136;13.428;2023-09-07T06:09:32;5.20;;;4.70;;
4464;SDS011;2245;48.136;13.428;2023-09-07T06:11:58;6.70;;;4.47;;
4464;SDS011;2245;48.136;13.428;2023-09-07T06:14:27;5.50;;;5.00;;
4464;SDS011;2245;48.136;13.428;2023-09-07T06:16:53;5.33;;;4.70;;
4464;SDS011;2245;48.136;13.428;2023-09-07T06:19:20;6.50;;;5.80;;
4464;SDS011;2245;48.136;13.428;2023-09-07T06:21:47;4.77;;;4.23;;
4464;SDS011;2245;48.136;13.428;2023-09-07T06:24:14;13.33;;;4.90;;
4464;SDS011;2245;48.136;13.428;2023-09-07T06:26:41;4.90;;;4.37;;
4464;SDS011;2245;48.136;13.428;2023-09-07T06:29:09;4.80;;;4.40;;
4464;SDS011;2245;48.136;13.428;2023-09-07T06:31:37;5.03;;;4.50;;
4464;SDS011;2245;48.136;13.428;2023-09-07T06:34:04;5.70;;;4.70;;
4464;SDS011;2245;48.136;13.428;2023-09-07T06:36:31;5.93;;;4.40;;
4464;SDS011;2245;48.136;13.428;2023-09-07T06:38:58;6.43;;;4.40;;
4464;SDS011;2245;48.136;13.428;2023-09-07T06:41:25;5.13;;;4.57;;
4464;SDS011;2245;48.136;13.428;2023-09-07T06:43:51;6.53;;;4.70;;
4464;SDS011;2245;48.136;13.428;2023-09-07T06:46:18;5.00;;;4.37;;
4464;SDS011;2245;48.136;13.428;2023-09-07T06:48:47;5.00;;;4.00;;
4464;SDS011;2245;48.136;13.428;2023-09-07T06:51:14;4.93;;;4.43;;
4464;SDS011;2245;48.136;13.428;2023-09-07T06:53:41;5.17;;;4.43;;
4464;SDS011;2245;48.136;13.428;2023-09-07T06:56:07;5.60;;;4.30;;
4464;SDS011;2245;48.136;13.428;2023-09-07T06:58:35;5.37;;;4.30;;
4464;SDS011;2245;48.136;13.428;2023-09-07T07:01:02;5.30;;;4.00;;
4464;SDS011;2245;48.136;13.428;2023-09-07T07:03:29;4.87;;;4.33;;
4464;SDS011;2245;48.136;13.428;2023-09-07T07:05:58;4.37;;;3.97;;
4464;SDS011;2245;48.136;13.428;2023-09-07T07:08:24;4.30;;;3.90;;
4464;SDS011;2245;48.136;13.428;2023-09-07T07:10:51;6.13;;;4.93;;
4464;SDS011;2245;48.136;13.428;2023-09-07T07:13:19;4.13;;;3.73;;
4464;SDS011;2245;48.136;13.428;2023-09-07T07:15:45;4.73;;;3.50;;
4464;SDS011;2245;48.136;13.428;2023-09-07T07:18:12;5.43;;;4.33;;
4464;SDS011;2245;48.136;13.428;2023-09-07T07:20:39;3.80;;;3.50;;
4464;SDS011;2245;48.136;13.428;2023-09-07T07:23:09;6.17;;;4.60;;
4464;SDS011;2245;48.136;13.428;2023-09-07T07:25:36;4.60;;;3.83;;
4464;SDS011;2245;48.136;13.428;2023-09-07T07:28:03;14.57;;;3.97;;
4464;SDS011;2245;48.136;13.428;2023-09-07T07:30:31;4.37;;;4.07;;
4464;SDS011;2245;48.136;13.428;2023-09-07T07:32:57;4.50;;;3.80;;
4464;SDS011;2245;48.136;13.428;2023-09-07T07:35:24;4.57;;;3.87;;
4464;SDS011;2245;48.136;13.428;2023-09-07T07:37:51;4.70;;;4.30;;
4464;SDS011;2245;48.136;13.428;2023-09-07T07:40:19;3.47;;;3.17;;
4464;SDS011;2245;48.136;13.428;2023-09-07T07:42:46;6.20;;;4.50;;
4464;SDS011;2245;48.136;13.428;2023-09-07T07:45:14;4.90;;;4.37;;
4464;SDS011;2245;48.136;13.428;2023-09-07T07:47:44;4.57;;;4.03;;
4464;SDS011;2245;48.136;13.428;2023-09-07T07:50:11;4.40;;;3.80;;
4464;SDS011;2245;48.136;13.428;2023-09-07T07:52:38;5.33;;;4.30;;
4464;SDS011;2245;48.136;13.428;2023-09-07T07:55:05;5.07;;;4.57;;
4464;SDS011;2245;48.136;13.428;2023-09-07T07:57:34;4.93;;;4.43;;
4464;SDS011;2245;48.136;13.428;2023-09-07T08:00:01;5.20;;;4.30;;
4464;SDS011;2245;48.136;13.428;2023-09-07T08:02:29;4.77;;;4.10;;
4464;SDS011;2245;48.136;13.428;2023-09-07T08:04:56;5.03;;;3.97;;
4464;SDS011;2245;48.136;13.428;2023-09-07T08:07:23;5.30;;;4.30;;
4464;SDS011;2245;48.136;13.428;2023-09-07T08:09:51;3.87;;;3.50;;
4464;SDS011;2245;48.136;13.428;2023-09-07T08:12:18;3.83;;;3.53;;
4464;SDS011;2245;48.136;13.428;2023-09-07T08:14:46;7.53;;;4.87;;
4464;SDS011;2245;48.136;13.428;2023-09-07T08:17:13;4.37;;;3.97;;
4464;SDS011;2245;48.136;13.428;2023-09-07T08:19:40;4.97;;;4.37;;
4464;SDS011;2245;48.136;13.428;2023-09-07T08:22:08;5.90;;;3.80;;
4464;SDS011;2245;48.136;13.428;2023-09-07T08:24:35;5.37;;;3.53;;
4464;SDS011;2245;48.136;13.428;2023-09-07T08:27:02;4.70;;;4.30;;
4464;SDS011;2245;48.136;13.428;2023-09-07T08:29:29;4.40;;;3.93;;
4464;SDS011;2245;48.136;13.428;2023-09-07T08:31:59;4.20;;;3.80;;
4464;SDS011;2245;48.136;13.428;2023-09-07T08:34:28;4.57;;;4.17;;
4464;SDS011;2245;48.136;13.428;2023-09-07T08:36:56;4.83;;;3.67;;
4464;SDS011;2245;48.136;13.428;2023-09-07T08:39:24;4.30;;;3.90;;
4464;SDS011;2245;48.136;13.428;2023-09-07T08:41:51;4.33;;;3.93;;
4464;SDS011;2245;48.136;13.428;2023-09-07T08:44:18;5.73;;;4.13;;
4464;SDS011;2245;48.136;13.428;2023-09-07T08:46:45;4.30;;;3.90;;
4464;SDS011;2245;48.136;13.428;2023-09-07T08:49:14;4.17;;;3.77;;
4464;SDS011;2245;48.136;13.428;2023-09-07T08:51:44;7.20;;;4.20;;
4464;SDS011;2245;48.136;13.428;2023-09-07T08:54:11;4.80;;;3.17;;
4464;SDS011;2245;48.136;13.428;2023-09-07T08:56:39;4.93;;;4.03;;
4464;SDS011;2245;48.136;13.428;2023-09-07T08:59:05;7.27;;;4.80;;
4464;SDS011;2245;48.136;13.428;2023-09-07T09:01:32;6.13;;;4.20;;
4464;SDS011;2245;48.136;13.428;2023-09-07T09:03:59;3.90;;;3.60;;
4464;SDS011;2245;48.136;13.428;2023-09-07T09:06:27;4.40;;;4.00;;
4464;SDS011;2245;48.136;13.428;2023-09-07T09:08:54;5.20;;;4.70;;
4464;SDS011;2245;48.136;13.428;2023-09-07T09:11:22;4.37;;;3.97;;
4464;SDS011;2245;48.136;13.428;2023-09-07T09:13:50;4.30;;;3.90;;
4464;SDS011;2245;48.136;13.428;2023-09-07T09:16:18;7.67;;;3.80;;
4464;SDS011;2245;48.136;13.428;2023-09-07T09:18:48;7.50;;;4.93;;
4464;SDS011;2245;48.136;13.428;2023-09-07T09:21:17;5.90;;;4.60;;
4464;SDS011;2245;48.136;13.428;2023-09-07T09:23:48;5.23;;;4.60;;
4464;SDS011;2245;48.136;13.428;2023-09-07T09:26:17;5.20;;;4.70;;
4464;SDS011;2245;48.136;13.428;2023-09-07T09:28:49;5.33;;;4.30;;
4464;SDS011;2245;48.136;13.428;2023-09-07T09:31:19;5.73;;;4.60;;
4464;SDS011;2245;48.136;13.428;2023-09-07T09:33:48;5.17;;;4.67;;
4464;SDS011;2245;48.136;13.428;2023-09-07T09:36:16;4.53;;;4.10;;
4464;SDS011;2245;48.136;13.428;2023-09-07T09:38:48;7.60;;;4.67;;
4464;SDS011;2245;48.136;13.428;2023-09-07T09:41:18;4.67;;;3.70;;
4464;SDS011;2245;48.136;13.428;2023-09-07T09:43:45;5.30;;;4.80;;
4464;SDS011;2245;48.136;13.428;2023-09-07T09:46:14;5.17;;;4.67;;
4464;SDS011;2245;48.136;13.428;2023-09-07T09:48:42;6.10;;;4.17;;
4464;SDS011;2245;48.136;13.428;2023-09-07T09:51:08;4.20;;;3.73;;
4464;SDS011;2245;48.136;13.428;2023-09-07T09:53:37;6.07;;;4.87;;
4464;SDS011;2245;48.136;13.428;2023-09-07T09:56:06;5.50;;;4.23;;
4464;SDS011;2245;48.136;13.428;2023-09-07T09:58:33;5.67;;;4.47;;
4464;SDS011;2245;48.136;13.428;2023-09-07T10:00:59;5.87;;;5.27;;
4464;SDS011;2245;48.136;13.428;2023-09-07T10:03:31;4.80;;;4.30;;
4464;SDS011;2245;48.136;13.428;2023-09-07T10:06:07;6.23;;;4.40;;
4464;SDS011;2245;48.136;13.428;2023-09-07T10:08:34;4.53;;;4.10;;
4464;SDS011;2245;48.136;13.428;2023-09-07T10:11:01;6.13;;;5.30;;
4464;SDS011;2245;48.136;13.428;2023-09-07T10:13:35;5.50;;;5.00;;
4464;SDS011;2245;48.136;13.428;2023-09-07T10:16:02;5.27;;;4.17;;
4464;SDS011;2245;48.136;13.428;2023-09-07T10:18:33;4.30;;;3.90;;
4464;SDS011;2245;48.136;13.428;2023-09-07T10:21:00;6.50;;;4.93;;
4464;SDS011;2245;48.136;13.428;2023-09-07T10:23:37;4.73;;;4.03;;
4464;SDS011;2245;48.136;13.428;2023-09-07T10:26:11;4.97;;;4.00;;
4464;SDS011;2245;48.136;13.428;2023-09-07T10:28:40;4.57;;;4.17;;
4464;SDS011;2245;48.136;13.428;2023-09-07T10:31:14;7.80;;;4.80;;
4464;SDS011;2245;48.136;13.428;2023-09-07T10:33:42;5.27;;;4.73;;
4464;SDS011;2245;48.136;13.428;2023-09-07T10:36:19;4.03;;;3.73;;
4464;SDS011;2245;48.136;13.428;2023-09-07T10:38:46;4.10;;;3.70;;
4464;SDS011;2245;48.136;13.428;2023-09-07T10:41:14;5.43;;;4.30;;
4464;SDS011;2245;48.136;13.428;2023-09-07T10:43:46;4.30;;;3.90;;
4464;SDS011;2245;48.136;13.428;2023-09-07T10:46:14;4.17;;;3.77;;
4464;SDS011;2245;48.136;13.428;2023-09-07T10:48:41;4.20;;;3.67;;
4464;SDS011;2245;48.136;13.428;2023-09-07T10:51:08;5.00;;;3.87;;
4464;SDS011;2245;48.136;13.428;2023-09-07T10:53:35;9.73;;;4.73;;
4464;SDS011;2245;48.136;13.428;2023-09-07T10:56:02;10.73;;;4.83;;
4464;SDS011;2245;48.136;13.428;2023-09-07T10:58:32;4.27;;;3.63;;
4464;SDS011;2245;48.136;13.428;2023-09-07T11:01:00;4.43;;;4.03;;
4464;SDS011;2245;48.136;13.428;2023-09-07T11:03:28;4.23;;;3.83;;
4464;SDS011;2245;48.136;13.428;2023-09-07T11:05:55;6.20;;;4.67;;
4464;SDS011;2245;48.136;13.428;2023-09-07T11:08:25;7.50;;;4.57;;
4464;SDS011;2245;48.136;13.428;2023-09-07T11:10:53;5.93;;;4.60;;
4464;SDS011;2245;48.136;13.428;2023-09-07T11:13:20;4.27;;;3.97;;
4464;SDS011;2245;48.136;13.428;2023-09-07T11:15:49;7.93;;;4.80;;
4464;SDS011;2245;48.136;13.428;2023-09-07T11:18:20;4.93;;;4.07;;
4464;SDS011;2245;48.136;13.428;2023-09-07T11:20:48;5.87;;;4.50;;
4464;SDS011;2245;48.136;13.428;2023-09-07T11:23:15;4.90;;;3.87;;
4464;SDS011;2245;48.136;13.428;2023-09-07T11:25:42;8.80;;;4.40;;
4464;SDS011;2245;48.136;13.428;2023-09-07T11:28:09;4.57;;;3.80;;
4464;SDS011;2245;48.136;13.428;2023-09-07T11:30:36;4.63;;;3.97;;
4464;SDS011;2245;48.136;13.428;2023-09-07T11:33:05;5.13;;;3.80;;
4464;SDS011;2245;48.136;13.428;2023-09-07T11:35:33;9.33;;;4.70;;
4464;SDS011;2245;48.136;13.428;2023-09-07T11:38:00;4.70;;;4.17;;
4464;SDS011;2245;48.136;13.428;2023-09-07T11:40:29;6.60;;;3.90;;
4464;SDS011;2245;48.136;13.428;2023-09-07T11:42:56;8.17;;;4.60;;
4464;SDS011;2245;48.136;13.428;2023-09-07T11:45:23;6.50;;;4.23;;
4464;SDS011;2245;48.136;13.428;2023-09-07T11:47:51;5.80;;;4.23;;
4464;SDS011;2245;48.136;13.428;2023-09-07T11:50:19;4.73;;;3.73;;
4464;SDS011;2245;48.136;13.428;2023-09-07T11:52:49;5.60;;;4.20;;
4464;SDS011;2245;48.136;13.428;2023-09-07T11:55:17;7.10;;;4.33;;
4464;SDS011;2245;48.136;13.428;2023-09-07T11:57:44;4.50;;;3.90;;
4464;SDS011;2245;48.136;13.428;2023-09-07T12:00:11;4.20;;;3.90;;
4464;SDS011;2245;48.136;13.428;2023-09-07T12:02:39;6.40;;;4.80;;
4464;SDS011;2245;48.136;13.428;2023-09-07T12:05:07;4.37;;;3.97;;
4464;SDS011;2245;48.136;13.428;2023-09-07T12:07:36;6.10;;;4.10;;
4464;SDS011;2245;48.136;13.428;2023-09-07T12:10:03;5.77;;;4.10;;
4464;SDS011;2245;48.136;13.428;2023-09-07T12:12:30;3.87;;;3.53;;
4464;SDS011;2245;48.136;13.428;2023-09-07T12:14:57;6.07;;;4.60;;
4464;SDS011;2245;48.136;13.428;2023-09-07T12:17:24;9.90;;;3.93;;
4464;SDS011;2245;48.136;13.428;2023-09-07T12:19:51;4.23;;;3.40;;
4464;SDS011;2245;48.136;13.428;2023-09-07T12:22:18;4.50;;;3.80;;
4464;SDS011;2245;48.136;13.428;2023-09-07T12:24:46;7.70;;;4.50;;
4464;SDS011;2245;48.136;13.428;2023-09-07T12:27:13;5.00;;;4.50;;
4464;SDS011;2245;48.136;13.428;2023-09-07T12:29:39;5.03;;;3.97;;
4464;SDS011;2245;48.136;13.428;2023-09-07T12:32:06;5.10;;;3.50;;
4464;SDS011;2245;48.136;13.428;2023-09-07T12:34:33;5.60;;;3.73;;
4464;SDS011;2245;48.136;13.428;2023-09-07T12:37:00;5.57;;;3.87;;
4464;SDS011;2245;48.136;13.428;2023-09-07T12:39:29;4.73;;;4.00;;
4464;SDS011;2245;48.136;13.428;2023-09-07T12:41:57;4.80;;;4.27;;
4464;SDS011;2245;48.136;13.428;2023-09-07T12:44:24;5.77;;;4.40;;
4464;SDS011;2245;48.136;13.428;2023-09-07T12:46:51;10.83;;;5.63;;
4464;SDS011;2245;48.136;13.428;2023-09-07T12:49:18;4.20;;;3.77;;
4464;SDS011;2245;48.136;13.428;2023-09-07T12:51:45;4.88;;;4.30;;
4464;SDS011;2245;48.136;13.428;2023-09-07T12:54:12;5.20;;;4.20;;
4464;SDS011;2245;48.136;13.428;2023-09-07T12:56:38;5.13;;;3.97;;
4464;SDS011;2245;48.136;13.428;2023-09-07T12:59:07;5.80;;;4.40;;
4464;SDS011;2245;48.136;13.428;2023-09-07T13:01:34;5.13;;;4.60;;
4464;SDS011;2245;48.136;13.428;2023-09-07T13:04:01;4.93;;;4.43;;
4464;SDS011;2245;48.136;13.428;2023-09-07T13:06:28;4.67;;;4.27;;
4464;SDS011;2245;48.136;13.428;2023-09-07T13:08:54;8.87;;;4.37;;
4464;SDS011;2245;48.136;13.428;2023-09-07T13:11:21;4.70;;;4.20;;
4464;SDS011;2245;48.136;13.428;2023-09-07T13:13:48;6.40;;;4.83;;
4464;SDS011;2245;48.136;13.428;2023-09-07T13:16:16;7.43;;;4.43;;
4464;SDS011;2245;48.136;13.428;2023-09-07T13:18:43;4.20;;;3.80;;
4464;SDS011;2245;48.136;13.428;2023-09-07T13:21:10;4.50;;;4.10;;
4464;SDS011;2245;48.136;13.428;2023-09-07T13:23:36;7.47;;;4.23;;
4464;SDS011;2245;48.136;13.428;2023-09-07T13:26:03;9.73;;;3.77;;
4464;SDS011;2245;48.136;13.428;2023-09-07T13:28:31;4.20;;;3.80;;
4464;SDS011;2245;48.136;13.428;2023-09-07T13:30:57;6.00;;;4.03;;
4464;SDS011;2245;48.136;13.428;2023-09-07T13:33:25;5.77;;;4.50;;
4464;SDS011;2245;48.136;13.428;2023-09-07T13:35:54;8.07;;;3.63;;
4464;SDS011;2245;48.136;13.428;2023-09-07T13:38:21;5.03;;;3.73;;
4464;SDS011;2245;48.136;13.428;2023-09-07T13:40:48;5.17;;;4.20;;
4464;SDS011;2245;48.136;13.428;2023-09-07T13:43:14;7.87;;;3.80;;
4464;SDS011;2245;48.136;13.428;2023-09-07T13:45:41;5.33;;;3.70;;
4464;SDS011;2245;48.136;13.428;2023-09-07T13:48:09;5.90;;;4.37;;
4464;SDS011;2245;48.136;13.428;2023-09-07T13:50:37;5.33;;;3.70;;
4464;SDS011;2245;48.136;13.428;2023-09-07T13:53:04;5.50;;;4.13;;
4464;SDS011;2245;48.136;13.428;2023-09-07T13:55:31;5.40;;;3.80;;
4464;SDS011;2245;48.136;13.428;2023-09-07T13:57:59;5.57;;;4.05;;
4464;SDS011;2245;48.136;13.428;2023-09-07T14:00:25;5.70;;;4.30;;
4464;SDS011;2245;48.136;13.428;2023-09-07T14:02:52;5.93;;;4.50;;
4464;SDS011;2245;48.136;13.428;2023-09-07T14:05:19;4.97;;;4.47;;
4464;SDS011;2245;48.136;13.428;2023-09-07T14:07:47;5.10;;;4.40;;
4464;SDS011;2245;48.136;13.428;2023-09-07T14:10:14;7.93;;;3.97;;
4464;SDS011;2245;48.136;13.428;2023-09-07T14:12:41;4.63;;;3.77;;
4464;SDS011;2245;48.136;13.428;2023-09-07T14:15:09;4.17;;;3.77;;
4464;SDS011;2245;48.136;13.428;2023-09-07T14:17:36;4.83;;;4.23;;
4464;SDS011;2245;48.136;13.428;2023-09-07T14:20:03;5.53;;;4.30;;
4464;SDS011;2245;48.136;13.428;2023-09-07T14:22:30;8.60;;;3.93;;
4464;SDS011;2245;48.136;13.428;2023-09-07T14:24:59;8.10;;;4.50;;
4464;SDS011;2245;48.136;13.428;2023-09-07T14:27:25;9.87;;;5.23;;
4464;SDS011;2245;48.136;13.428;2023-09-07T14:29:52;4.23;;;3.47;;
4464;SDS011;2245;48.136;13.428;2023-09-07T14:32:19;6.33;;;3.83;;
4464;SDS011;2245;48.136;13.428;2023-09-07T14:34:46;6.20;;;4.30;;
4464;SDS011;2245;48.136;13.428;2023-09-07T14:37:12;7.27;;;4.50;;
4464;SDS011;2245;48.136;13.428;2023-09-07T14:39:39;5.57;;;4.10;;
4464;SDS011;2245;48.136;13.428;2023-09-07T14:42:13;4.63;;;3.80;;
4464;SDS011;2245;48.136;13.428;2023-09-07T14:44:42;4.70;;;4.13;;
4464;SDS011;2245;48.136;13.428;2023-09-07T14:47:08;13.13;;;4.67;;
4464;SDS011;2245;48.136;13.428;2023-09-07T14:49:35;7.53;;;4.60;;
4464;SDS011;2245;48.136;13.428;2023-09-07T14:52:02;5.20;;;4.33;;
4464;SDS011;2245;48.136;13.428;2023-09-07T14:54:29;5.27;;;3.93;;
4464;SDS011;2245;48.136;13.428;2023-09-07T14:56:56;5.13;;;4.23;;
4464;SDS011;2245;48.136;13.428;2023-09-07T14:59:24;7.37;;;4.93;;
4464;SDS011;2245;48.136;13.428;2023-09-07T15:01:51;7.60;;;3.97;;